sensor_id;sensor_type;location;lat;lon;timestamp;pressure;altitude;pressure_sealevel;temperature;humidity
46174;BME280;31897;52.420;13.498;2022-07-11T00:00:37;101600;;;15.70462;26.06019
46174;BME280;31897;52.420;13.498;2022-07-11T00:03:38;101600;;;15.68846;26.14433
46174;BME280;31897;52.420;13.498;2022-07-11T00:06:38;101600;;;15.71011;26.17938
46174;BME280;31897;52.420;13.498;2022-07-11T00:09:39;101600;;;15.67845;26.25211
46174;BME280;31897;52.420;13.498;2022-07-11T00:12:40;101600;;;15.69331;26.31128
46174;BME280;31897;52.420;13.498;2022-07-11T00:15:41;101600;;;15.69202;26.29939
46174;BME280;31897;52.420;13.498;2022-07-11T00:18:42;101600;;;15.69783;26.3529
46174;BME280;31897;52.420;13.498;2022-07-11T00:21:42;101600;;;15.68103;26.4072
46174;BME280;31897;52.420;13.498;2022-07-11T00:24:43;101600;;;15.68556;26.42495
46174;BME280;31897;52.420;13.498;2022-07-11T00:27:44;101600;;;15.71883;26.42976
46174;BME280;31897;52.420;13.498;2022-07-11T00:30:45;101600;;;15.70397;26.44818
46174;BME280;31897;52.420;13.498;2022-07-11T00:33:45;101600;;;15.62999;26.55815
46174;BME280;31897;52.420;13.498;2022-07-11T00:36:46;101600;;;15.59736;26.68457
46174;BME280;31897;52.420;13.498;2022-07-11T00:39:47;101600;;;15.55762;26.69189
46174;BME280;31897;52.420;13.498;2022-07-11T00:42:47;101600;;;15.53339;26.69869
46174;BME280;31897;52.420;13.498;2022-07-11T00:45:48;101600;;;15.4452;26.80308
46174;BME280;31897;52.420;13.498;2022-07-11T00:48:49;101600;;;15.43615;26.81531
46174;BME280;31897;52.420;13.498;2022-07-11T00:51:50;101600;;;15.43745;26.83316
46174;BME280;31897;52.420;13.498;2022-07-11T00:54:51;101600;;;15.45328;26.81474
46174;BME280;31897;52.420;13.498;2022-07-11T00:57:52;101600;;;15.44649;26.809
46174;BME280;31897;52.420;13.498;2022-07-11T01:00:53;101600;;;15.42517;26.89322
46174;BME280;31897;52.420;13.498;2022-07-11T01:03:54;101600;;;15.42226;26.93506
46174;BME280;31897;52.420;13.498;2022-07-11T01:06:54;101600;;;15.40288;26.92378
46174;BME280;31897;52.420;13.498;2022-07-11T01:09:55;101600;;;15.37703;26.99024
46174;BME280;31897;52.420;13.498;2022-07-11T01:12:56;101600;;;15.34279;27.05101
46174;BME280;31897;52.420;13.498;2022-07-11T01:16:13;101600;;;15.33374;27.08112
46174;BME280;31897;52.420;13.498;2022-07-11T01:19:14;101600;;;15.33988;27.06899
46174;BME280;31897;52.420;13.498;2022-07-11T01:22:15;101600;;;15.31662;27.1115
46174;BME280;31897;52.420;13.498;2022-07-11T01:25:18;101600;;;15.31533;27.15924
46174;BME280;31897;52.420;13.498;2022-07-11T01:28:19;101600;;;15.28076;27.18422
46174;BME280;31897;52.420;13.498;2022-07-11T01:31:20;101600;;;15.23489;27.23342
46174;BME280;31897;52.420;13.498;2022-07-11T01:34:21;101600;;;15.17835;27.31275
46174;BME280;31897;52.420;13.498;2022-07-11T01:37:22;101600;;;15.11019;27.45798
46174;BME280;31897;52.420;13.498;2022-07-11T01:40:22;101600;;;14.99938;27.5926
46174;BME280;31897;52.420;13.498;2022-07-11T01:43:23;101600;;;14.94543;27.67175
46174;BME280;31897;52.420;13.498;2022-07-11T01:46:24;101600;;;14.92831;27.71398
46174;BME280;31897;52.420;13.498;2022-07-11T01:49:24;101600;;;14.92088;27.72613
46174;BME280;31897;52.420;13.498;2022-07-11T01:52:25;101600;;;14.87791;27.77512
46174;BME280;31897;52.420;13.498;2022-07-11T01:55:26;101600;;;14.83527;27.85387
46174;BME280;31897;52.420;13.498;2022-07-11T01:58:27;101600;;;14.81104;27.85463
46174;BME280;31897;52.420;13.498;2022-07-11T02:01:27;101600;;;14.73964;27.89852
46174;BME280;31897;52.420;13.498;2022-07-11T02:04:28;101600;;;14.69861;27.98313
46174;BME280;31897;52.420;13.498;2022-07-11T02:07:29;101600;;;14.67148;28.01968
46174;BME280;31897;52.420;13.498;2022-07-11T02:10:30;101600;;;14.61333;28.11669
46174;BME280;31897;52.420;13.498;2022-07-11T02:13:30;101600;;;14.58522;28.19491
46174;BME280;31897;52.420;13.498;2022-07-11T02:16:31;101600;;;14.52772;28.26805
46174;BME280;31897;52.420;13.498;2022-07-11T02:19:32;101600;;;14.46795;28.37098
46174;BME280;31897;52.420;13.498;2022-07-11T02:22:32;101600;;;14.35262;28.48742
46174;BME280;31897;52.420;13.498;2022-07-11T02:25:33;101600;;;14.29803;28.53066
46174;BME280;31897;52.420;13.498;2022-07-11T02:28:34;101600;;;14.27057;28.56119
46174;BME280;31897;52.420;13.498;2022-07-11T02:31:34;101600;;;14.19336;28.68831
46174;BME280;31897;52.420;13.498;2022-07-11T02:34:35;101600;;;14.16945;28.73061
46174;BME280;31897;52.420;13.498;2022-07-11T02:37:36;101600;;;14.12745;28.78532
46174;BME280;31897;52.420;13.498;2022-07-11T02:40:37;101600;;;14.04443;28.7996
46174;BME280;31897;52.420;13.498;2022-07-11T02:43:38;101600;;;13.94138;28.9095
46174;BME280;31897;52.420;13.498;2022-07-11T02:46:38;101600;;;13.85641;29.0129
46174;BME280;31897;52.420;13.498;2022-07-11T02:49:39;101600;;;13.80892;29.09738
46174;BME280;31897;52.420;13.498;2022-07-11T02:52:41;101600;;;13.78922;29.22858
46174;BME280;31897;52.420;13.498;2022-07-11T02:55:42;101600;;;13.74367;29.28922
46174;BME280;31897;52.420;13.498;2022-07-11T02:58:43;101600;;;13.68358;29.28494
46174;BME280;31897;52.420;13.498;2022-07-11T03:01:44;101600;;;13.51236;29.40836
46174;BME280;31897;52.420;13.498;2022-07-11T03:04:44;101600;;;13.31595;29.60943
46174;BME280;31897;52.420;13.498;2022-07-11T03:07:45;101600;;;13.18253;29.74344
46174;BME280;31897;52.420;13.498;2022-07-11T03:10:46;101600;;;13.14376;29.83339
46174;BME280;31897;52.420;13.498;2022-07-11T03:13:46;101600;;;13.14279;29.92235
46174;BME280;31897;52.420;13.498;2022-07-11T03:16:47;101600;;;13.11275;29.98241
46174;BME280;31897;52.420;13.498;2022-07-11T03:19:48;101600;;;13.02068;30.10924
46174;BME280;31897;52.420;13.498;2022-07-11T03:22:49;101600;;;12.94896;30.25328
46174;BME280;31897;52.420;13.498;2022-07-11T03:25:49;101600;;;12.95381;30.26501
46174;BME280;31897;52.420;13.498;2022-07-11T03:28:50;101600;;;13.02875;30.24534
46174;BME280;31897;52.420;13.498;2022-07-11T03:31:51;101600;;;13.021;30.22776
46174;BME280;31897;52.420;13.498;2022-07-11T03:34:52;101600;;;12.99936;30.29349
46174;BME280;31897;52.420;13.498;2022-07-11T03:37:53;101600;;;12.97707;30.34145
46174;BME280;31897;52.420;13.498;2022-07-11T03:40:54;101600;;;12.9874;30.33527
46174;BME280;31897;52.420;13.498;2022-07-11T03:43:54;101600;;;12.97287;30.42451
46174;BME280;31897;52.420;13.498;2022-07-11T03:46:55;101600;;;12.98676;30.41824
46174;BME280;31897;52.420;13.498;2022-07-11T03:49:56;101600;;;13.03263;30.40525
46174;BME280;31897;52.420;13.498;2022-07-11T03:52:57;101600;;;13.00485;30.4415
46174;BME280;31897;52.420;13.498;2022-07-11T03:55:57;101600;;;13.02132;30.44109
46174;BME280;31897;52.420;13.498;2022-07-11T03:58:58;101600;;;12.96059;30.43667
46174;BME280;31897;52.420;13.498;2022-07-11T04:01:59;101600;;;12.85108;30.55785
46174;BME280;31897;52.420;13.498;2022-07-11T04:05:00;101600;;;12.84688;30.61718
46174;BME280;31897;52.420;13.498;2022-07-11T04:08:00;101600;;;12.91246;30.66298
46174;BME280;31897;52.420;13.498;2022-07-11T04:11:01;101600;;;12.94573;30.6207
46174;BME280;31897;52.420;13.498;2022-07-11T04:14:02;101600;;;13.01809;30.55968
46174;BME280;31897;52.420;13.498;2022-07-11T04:17:03;101600;;;13.06074;30.57049
46174;BME280;31897;52.420;13.498;2022-07-11T04:20:04;101600;;;13.03037;30.52383
46174;BME280;31897;52.420;13.498;2022-07-11T04:23:10;101600;;;13.06332;30.57635
46174;BME280;31897;52.420;13.498;2022-07-11T04:26:11;101600;;;13.06106;30.5527
46174;BME280;31897;52.420;13.498;2022-07-11T04:29:12;101600;;;13.04071;30.58876
46174;BME280;31897;52.420;13.498;2022-07-11T04:32:12;101600;;;13.08432;30.64696
46174;BME280;31897;52.420;13.498;2022-07-11T04:35:13;101600;;;13.10629;30.67013
46174;BME280;31897;52.420;13.498;2022-07-11T04:38:14;101600;;;13.18479;30.59116
46174;BME280;31897;52.420;13.498;2022-07-11T04:41:15;101600;;;13.20676;30.49577
46174;BME280;31897;52.420;13.498;2022-07-11T04:44:16;101600;;;13.10499;30.55162
46174;BME280;31897;52.420;13.498;2022-07-11T04:47:16;101600;;;13.05524;30.75433
46174;BME280;31897;52.420;13.498;2022-07-11T04:50:17;101600;;;13.12179;30.74087
46174;BME280;31897;52.420;13.498;2022-07-11T04:53:18;101600;;;13.23518;30.77963
46174;BME280;31897;52.420;13.498;2022-07-11T04:56:19;101600;;;13.33371;30.8069
46174;BME280;31897;52.420;13.498;2022-07-11T04:59:19;101600;;;13.45486;30.72094
46174;BME280;31897;52.420;13.498;2022-07-11T05:02:20;101600;;;13.53013;30.6242
46174;BME280;31897;52.420;13.498;2022-07-11T05:05:21;101600;;;13.57891;30.58147
46174;BME280;31897;52.420;13.498;2022-07-11T05:08:22;101600;;;13.63351;30.53265
46174;BME280;31897;52.420;13.498;2022-07-11T05:11:22;101600;;;13.65418;30.4728
46174;BME280;31897;52.420;13.498;2022-07-11T05:14:23;101600;;;13.67647;30.43663
46174;BME280;31897;52.420;13.498;2022-07-11T05:17:24;101600;;;13.79406;30.40401
46174;BME280;31897;52.420;13.498;2022-07-11T05:20:25;101600;;;13.92167;30.26422
46174;BME280;31897;52.420;13.498;2022-07-11T05:23:25;101700;;;14.03797;30.2078
46174;BME280;31897;52.420;13.498;2022-07-11T05:26:26;101700;;;14.09095;30.09357
46174;BME280;31897;52.420;13.498;2022-07-11T05:29:27;101700;;;14.32613;29.63559
46174;BME280;31897;52.420;13.498;2022-07-11T05:32:27;101600;;;14.6185;29.39577
46174;BME280;31897;52.420;13.498;2022-07-11T05:35:28;101700;;;14.60784;29.49125
46174;BME280;31897;52.420;13.498;2022-07-11T05:38:29;101700;;;14.56067;29.48659
46174;BME280;31897;52.420;13.498;2022-07-11T05:41:30;101700;;;14.49671;29.62512
46174;BME280;31897;52.420;13.498;2022-07-11T05:44:30;101700;;;14.6634;29.36478
46174;BME280;31897;52.420;13.498;2022-07-11T05:47:31;101700;;;14.7348;29.30924
46174;BME280;31897;52.420;13.498;2022-07-11T05:50:32;101700;;;14.87145;29.23995
46174;BME280;31897;52.420;13.498;2022-07-11T05:53:33;101700;;;15.31921;28.73868
46174;BME280;31897;52.420;13.498;2022-07-11T05:56:34;101700;;;15.44649;28.72898
46174;BME280;31897;52.420;13.498;2022-07-11T05:59:34;101700;;;15.45845;28.72863
46174;BME280;31897;52.420;13.498;2022-07-11T06:02:35;101700;;;15.25298;28.97896
46174;BME280;31897;52.420;13.498;2022-07-11T06:05:36;101700;;;15.26493;29.06799
46174;BME280;31897;52.420;13.498;2022-07-11T06:08:37;101700;;;15.3864;28.97511
46174;BME280;31897;52.420;13.498;2022-07-11T06:11:37;101700;;;15.441;28.95565
46174;BME280;31897;52.420;13.498;2022-07-11T06:14:38;101700;;;15.39125;28.93325
46174;BME280;31897;52.420;13.498;2022-07-11T06:17:39;101700;;;15.34085;29.06581
46174;BME280;31897;52.420;13.498;2022-07-11T06:20:39;101700;;;15.36185;29.04733
46174;BME280;31897;52.420;13.498;2022-07-11T06:23:40;101700;;;15.42129;29.02178
46174;BME280;31897;52.420;13.498;2022-07-11T06:26:41;101700;;;15.43842;29.08089
46174;BME280;31897;52.420;13.498;2022-07-11T06:29:42;101700;;;15.45683;28.99691
46174;BME280;31897;52.420;13.498;2022-07-11T06:32:42;101700;;;15.48074;29.08564
46174;BME280;31897;52.420;13.498;2022-07-11T06:35:43;101700;;;15.77698;28.79676
46174;BME280;31897;52.420;13.498;2022-07-11T06:38:44;101700;;;16.573;27.83486
46174;BME280;31897;52.420;13.498;2022-07-11T06:41:45;101700;;;16.44733;28.13764
46174;BME280;31897;52.420;13.498;2022-07-11T06:44:46;101700;;;16.39177;28.07365
46174;BME280;31897;52.420;13.498;2022-07-11T06:47:47;101700;;;16.37206;28.22362
46174;BME280;31897;52.420;13.498;2022-07-11T06:50:47;101700;;;16.67154;27.8377
46174;BME280;31897;52.420;13.498;2022-07-11T06:53:48;101700;;;18.12113;26.11717
46174;BME280;31897;52.420;13.498;2022-07-11T06:56:49;101700;;;19.01442;25.55548
46174;BME280;31897;52.420;13.498;2022-07-11T06:59:50;101700;;;18.72269;25.95109
46174;BME280;31897;52.420;13.498;2022-07-11T07:02:50;101700;;;18.16733;26.16951
46174;BME280;31897;52.420;13.498;2022-07-11T07:05:51;101700;;;17.72053;26.55131
46174;BME280;31897;52.420;13.498;2022-07-11T07:08:52;101700;;;17.49858;26.75682
46174;BME280;31897;52.420;13.498;2022-07-11T07:11:52;101700;;;17.40328;26.81403
46174;BME280;31897;52.420;13.498;2022-07-11T07:14:53;101700;;;17.44883;26.77651
46174;BME280;31897;52.420;13.498;2022-07-11T07:17:54;101700;;;17.5044;26.70869
46174;BME280;31897;52.420;13.498;2022-07-11T07:20:55;101700;;;17.82456;26.32578
46174;BME280;31897;52.420;13.498;2022-07-11T07:23:56;101700;;;17.65979;26.53546
46174;BME280;31897;52.420;13.498;2022-07-11T07:26:56;101700;;;17.59098;26.67572
46174;BME280;31897;52.420;13.498;2022-07-11T07:29:57;101700;;;17.61327;26.55507
46174;BME280;31897;52.420;13.498;2022-07-11T07:32:58;101700;;;17.4708;26.70985
46174;BME280;31897;52.420;13.498;2022-07-11T07:35:58;101700;;;17.4036;26.79604
46174;BME280;31897;52.420;13.498;2022-07-11T07:38:59;101700;;;17.42589;26.8372
46174;BME280;31897;52.420;13.498;2022-07-11T07:42:00;101700;;;17.45077;26.75847
46174;BME280;31897;52.420;13.498;2022-07-11T07:45:01;101700;;;17.46563;26.64412
46174;BME280;31897;52.420;13.498;2022-07-11T07:48:02;101700;;;17.40683;26.64617
46174;BME280;31897;52.420;13.498;2022-07-11T07:51:02;101700;;;17.40134;26.65834
46174;BME280;31897;52.420;13.498;2022-07-11T07:54:03;101700;;;17.54413;26.62941
46174;BME280;31897;52.420;13.498;2022-07-11T07:57:04;101700;;;17.65527;26.53562
46174;BME280;31897;52.420;13.498;2022-07-11T08:00:05;101700;;;17.75219;26.45427
46174;BME280;31897;52.420;13.498;2022-07-11T08:03:06;101700;;;17.9428;26.34556
46174;BME280;31897;52.420;13.498;2022-07-11T08:06:07;101700;;;18.1431;26.2544
46174;BME280;31897;52.420;13.498;2022-07-11T08:09:07;101700;;;18.24164;26.13681
46174;BME280;31897;52.420;13.498;2022-07-11T08:12:08;101700;;;18.42449;25.83592
46174;BME280;31897;52.420;13.498;2022-07-11T08:15:09;101700;;;18.94657;25.10704
46174;BME280;31897;52.420;13.498;2022-07-11T08:18:10;101700;;;19.74036;24.28086
46174;BME280;31897;52.420;13.498;2022-07-11T08:21:11;101700;;;20.70636;23.05142
46174;BME280;31897;52.420;13.498;2022-07-11T08:24:12;101700;;;20.23596;23.33751
46174;BME280;31897;52.420;13.498;2022-07-11T08:27:13;101700;;;19.67187;24.02458
46174;BME280;31897;52.420;13.498;2022-07-11T08:30:14;101700;;;20.02208;23.84726
46174;BME280;31897;52.420;13.498;2022-07-11T08:33:14;101700;;;20.76354;23.00662
46174;BME280;31897;52.420;13.498;2022-07-11T08:36:15;101700;;;20.06699;23.73079
46174;BME280;31897;52.420;13.498;2022-07-11T08:39:16;101700;;;19.84762;24.00525
46174;BME280;31897;52.420;13.498;2022-07-11T08:42:18;101700;;;20.52317;23.18021
46174;BME280;31897;52.420;13.498;2022-07-11T08:45:19;101700;;;20.2324;23.27732
46174;BME280;31897;52.420;13.498;2022-07-11T08:48:21;101700;;;20.03921;23.42438
46174;BME280;31897;52.420;13.498;2022-07-11T08:51:23;101700;;;19.86604;23.74528
46174;BME280;31897;52.420;13.498;2022-07-11T08:54:24;101700;;;19.7171;23.93833
46174;BME280;31897;52.420;13.498;2022-07-11T08:57:25;101700;;;19.88542;23.74446
46174;BME280;31897;52.420;13.498;2022-07-11T09:00:26;101700;;;20.1119;23.53588
46174;BME280;31897;52.420;13.498;2022-07-11T09:03:26;101700;;;20.18459;23.56898
46174;BME280;31897;52.420;13.498;2022-07-11T09:06:28;101700;;;20.09219;23.56084
46174;BME280;31897;52.420;13.498;2022-07-11T09:09:29;101700;;;20.1077;23.39732
46174;BME280;31897;52.420;13.498;2022-07-11T09:12:30;101700;;;20.05019;23.29122
46174;BME280;31897;52.420;13.498;2022-07-11T09:15:31;101700;;;19.83244;23.39705
46174;BME280;31897;52.420;13.498;2022-07-11T09:18:33;101700;;;19.95617;23.33748
46174;BME280;31897;52.420;13.498;2022-07-11T09:21:34;101700;;;20.29443;23.05134
46174;BME280;31897;52.420;13.498;2022-07-11T09:24:35;101700;;;20.59425;22.61546
46174;BME280;31897;52.420;13.498;2022-07-11T09:27:39;101700;;;20.66662;22.48534
46174;BME280;31897;52.420;13.498;2022-07-11T09:30:40;101700;;;20.94673;22.30948
46174;BME280;31897;52.420;13.498;2022-07-11T09:33:56;101700;;;20.84819;22.41671
46174;BME280;31897;52.420;13.498;2022-07-11T09:36:57;101700;;;20.91926;22.37118
46174;BME280;31897;52.420;13.498;2022-07-11T09:40:09;101700;;;23.05289;20.54808
46174;BME280;31897;52.420;13.498;2022-07-11T09:43:10;101700;;;22.26877;20.97543
46174;BME280;31897;52.420;13.498;2022-07-11T09:46:10;101700;;;22.10174;21.17154
46174;BME280;31897;52.420;13.498;2022-07-11T09:49:11;101700;;;22.38056;20.93963
46174;BME280;31897;52.420;13.498;2022-07-11T09:52:13;101700;;;22.16603;21.11386
46174;BME280;31897;52.420;13.498;2022-07-11T09:55:14;101700;;;22.35503;20.81955
46174;BME280;31897;52.420;13.498;2022-07-11T09:58:16;101700;;;22.24745;20.84911
46174;BME280;31897;52.420;13.498;2022-07-11T10:01:16;101700;;;22.20641;20.68143
46174;BME280;31897;52.420;13.498;2022-07-11T10:04:17;101700;;;21.78673;21.0232
46174;BME280;31897;52.420;13.498;2022-07-11T10:07:19;101700;;;21.87687;20.86731
46174;BME280;31897;52.420;13.498;2022-07-11T10:10:20;101700;;;22.81737;19.90998
46174;BME280;31897;52.420;13.498;2022-07-11T10:13:20;101700;;;22.60122;19.89073
46174;BME280;31897;52.420;13.498;2022-07-11T10:16:24;101700;;;22.73175;19.61679
46174;BME280;31897;52.420;13.498;2022-07-11T10:19:29;101700;;;24.28612;18.45646
46174;BME280;31897;52.420;13.498;2022-07-11T10:22:34;101700;;;23.22801;19.35376
46174;BME280;31897;52.420;13.498;2022-07-11T10:25:37;101700;;;23.17631;19.18624
46174;BME280;31897;52.420;13.498;2022-07-11T10:28:43;101700;;;23.13399;19.28576
46174;BME280;31897;52.420;13.498;2022-07-11T10:31:57;101700;;;22.94272;19.47211
46174;BME280;31897;52.420;13.498;2022-07-11T10:35:07;101700;;;22.58668;19.91576
46174;BME280;31897;52.420;13.498;2022-07-11T10:38:08;101700;;;22.17637;19.91861
46174;BME280;31897;52.420;13.498;2022-07-11T10:41:20;101700;;;21.9528;20.08162
46174;BME280;31897;52.420;13.498;2022-07-11T10:44:21;101700;;;22.21352;19.82571
46174;BME280;31897;52.420;13.498;2022-07-11T10:51:03;101700;;;22.46003;19.64913
46174;BME280;31897;52.420;13.498;2022-07-11T10:54:10;101700;;;22.7731;19.20764
46174;BME280;31897;52.420;13.498;2022-07-11T10:57:14;101700;;;22.89814;19.06732
46174;BME280;31897;52.420;13.498;2022-07-11T11:00:19;101700;;;22.99183;19.13526
46174;BME280;31897;52.420;13.498;2022-07-11T11:03:20;101700;;;22.96211;19.07606
46174;BME280;31897;52.420;13.498;2022-07-11T11:06:21;101600;;;22.92915;19.04136
46174;BME280;31897;52.420;13.498;2022-07-11T11:09:55;101600;;;22.95726;18.83929
46174;BME280;31897;52.420;13.498;2022-07-11T11:13:09;101600;;;22.96178;18.72356
46174;BME280;31897;52.420;13.498;2022-07-11T11:16:17;101600;;;22.829;18.59097
46174;BME280;31897;52.420;13.498;2022-07-11T11:23:08;101600;;;22.91914;18.76848
46174;BME280;31897;52.420;13.498;2022-07-11T11:26:09;101600;;;22.7227;18.70003
46174;BME280;31897;52.420;13.498;2022-07-11T11:29:10;101600;;;22.89394;18.6543
46174;BME280;31897;52.420;13.498;2022-07-11T11:32:11;101600;;;23.06388;18.62076
46174;BME280;31897;52.420;13.498;2022-07-11T11:35:12;101600;;;23.05451;18.54223
46174;BME280;31897;52.420;13.498;2022-07-11T11:38:13;101600;;;23.25418;18.25761
46174;BME280;31897;52.420;13.498;2022-07-11T11:41:13;101600;;;23.15144;18.14772
46174;BME280;31897;52.420;13.498;2022-07-11T11:44:15;101600;;;22.77504;18.38124
46174;BME280;31897;52.420;13.498;2022-07-11T11:47:15;101600;;;22.52594;18.59528
46174;BME280;31897;52.420;13.498;2022-07-11T11:50:16;101600;;;22.86518;18.3763
46174;BME280;31897;52.420;13.498;2022-07-11T11:53:17;101600;;;23.16694;18.09213
46174;BME280;31897;52.420;13.498;2022-07-11T11:56:20;101600;;;23.25999;17.82536
46174;BME280;31897;52.420;13.498;2022-07-11T11:59:28;101600;;;23.22251;17.96129
46174;BME280;31897;52.420;13.498;2022-07-11T12:02:30;101600;;;23.30264;17.67693
46174;BME280;31897;52.420;13.498;2022-07-11T12:05:30;101600;;;23.64188;17.17057
46174;BME280;31897;52.420;13.498;2022-07-11T12:08:31;101600;;;23.7905;16.91829
46174;BME280;31897;52.420;13.498;2022-07-11T12:11:32;101600;;;23.85221;16.83548
46174;BME280;31897;52.420;13.498;2022-07-11T12:14:33;101600;;;24.11294;16.94214
46174;BME280;31897;52.420;13.498;2022-07-11T12:17:34;101600;;;23.82184;17.04441
46174;BME280;31897;52.420;13.498;2022-07-11T12:20:36;101600;;;24.00342;16.82662
46174;BME280;31897;52.420;13.498;2022-07-11T12:23:37;101600;;;23.72298;17.03188
46174;BME280;31897;52.420;13.498;2022-07-11T12:26:38;101600;;;23.81376;16.83164
46174;BME280;31897;52.420;13.498;2022-07-11T12:29:39;101600;;;23.93621;16.76352
46174;BME280;31897;52.420;13.498;2022-07-11T12:32:40;101600;;;24.39888;16.41905
46174;BME280;31897;52.420;13.498;2022-07-11T12:35:53;101600;;;24.53684;16.13617
46174;BME280;31897;52.420;13.498;2022-07-11T12:38:54;101600;;;24.79822;16.12651
46174;BME280;31897;52.420;13.498;2022-07-11T12:41:55;101600;;;24.42569;16.36254
46174;BME280;31897;52.420;13.498;2022-07-11T12:44:57;101600;;;24.16367;16.67088
46174;BME280;31897;52.420;13.498;2022-07-11T12:47:58;101600;;;24.04671;16.84238
46174;BME280;31897;52.420;13.498;2022-07-11T12:50:59;101600;;;24.10939;16.68018
46174;BME280;31897;52.420;13.498;2022-07-11T12:54:00;101600;;;24.60695;16.3395
46174;BME280;31897;52.420;13.498;2022-07-11T12:57:02;101600;;;24.7294;16.24668
46174;BME280;31897;52.420;13.498;2022-07-11T13:00:10;101600;;;24.68804;16.41401
46174;BME280;31897;52.420;13.498;2022-07-11T13:03:11;101600;;;24.51971;16.45457
46174;BME280;31897;52.420;13.498;2022-07-11T13:06:11;101600;;;24.19339;16.55936
46174;BME280;31897;52.420;13.498;2022-07-11T13:09:13;101600;;;24.4706;16.39037
46174;BME280;31897;52.420;13.498;2022-07-11T13:12:14;101600;;;24.35267;16.50722
46174;BME280;31897;52.420;13.498;2022-07-11T13:15:15;101600;;;24.29484;16.46185
46174;BME280;31897;52.420;13.498;2022-07-11T13:18:16;101600;;;24.85443;16.06203
46174;BME280;31897;52.420;13.498;2022-07-11T13:21:17;101600;;;24.79369;15.83973
46174;BME280;31897;52.420;13.498;2022-07-11T13:24:18;101600;;;24.87511;15.4621
46174;BME280;31897;52.420;13.498;2022-07-11T13:27:19;101600;;;24.50065;15.79044
46174;BME280;31897;52.420;13.498;2022-07-11T13:30:20;101600;;;24.36301;16.16494
46174;BME280;31897;52.420;13.498;2022-07-11T13:33:21;101600;;;24.34234;16.23329
46174;BME280;31897;52.420;13.498;2022-07-11T13:36:22;101600;;;25.24861;15.67132
46174;BME280;31897;52.420;13.498;2022-07-11T13:39:23;101600;;;25.28673;15.57726
46174;BME280;31897;52.420;13.498;2022-07-11T13:42:23;101600;;;25.04215;15.62289
46174;BME280;31897;52.420;13.498;2022-07-11T13:45:24;101600;;;24.90096;15.74155
46174;BME280;31897;52.420;13.498;2022-07-11T13:48:25;101600;;;24.66995;15.85948
46174;BME280;31897;52.420;13.498;2022-07-11T13:51:26;101600;;;24.59402;16.08999
46174;BME280;31897;52.420;13.498;2022-07-11T13:54:26;101600;;;24.54104;16.10539
46174;BME280;31897;52.420;13.498;2022-07-11T13:57:27;101600;;;24.44346;16.21502
46174;BME280;31897;52.420;13.498;2022-07-11T14:00:29;101600;;;24.5139;16.32675
46174;BME280;31897;52.420;13.498;2022-07-11T14:03:30;101600;;;25.4738;15.71252
46174;BME280;31897;52.420;13.498;2022-07-11T14:06:30;101600;;;25.95328;15.60953
46174;BME280;31897;52.420;13.498;2022-07-11T14:09:31;101600;;;26.15586;15.36419
46174;BME280;31897;52.420;13.498;2022-07-11T14:12:32;101600;;;26.49382;14.96904
46174;BME280;31897;52.420;13.498;2022-07-11T14:15:33;101600;;;26.95391;14.78639
46174;BME280;31897;52.420;13.498;2022-07-11T14:21:34;101600;;;27.17361;14.42226
46174;BME280;31897;52.420;13.498;2022-07-11T14:24:35;101600;;;26.96489;14.51558
46174;BME280;31897;52.420;13.498;2022-07-11T14:27:36;101600;;;26.68024;14.69957
46174;BME280;31897;52.420;13.498;2022-07-11T14:30:37;101600;;;26.446;14.83718
46174;BME280;31897;52.420;13.498;2022-07-11T14:33:38;101600;;;26.14326;14.97898
46174;BME280;31897;52.420;13.498;2022-07-11T14:36:38;101600;;;25.86604;15.0761
46174;BME280;31897;52.420;13.498;2022-07-11T14:39:39;101600;;;25.64149;15.14531
46174;BME280;31897;52.420;13.498;2022-07-11T14:42:40;101600;;;25.76685;15.08847
46174;BME280;31897;52.420;13.498;2022-07-11T14:45:41;101600;;;25.60983;15.18402
46174;BME280;31897;52.420;13.498;2022-07-11T14:48:42;101600;;;25.44408;15.24945
46174;BME280;31897;52.420;13.498;2022-07-11T14:51:42;101600;;;25.29869;15.34414
46174;BME280;31897;52.420;13.498;2022-07-11T14:54:43;101600;;;25.20854;15.41089
46174;BME280;31897;52.420;13.498;2022-07-11T14:57:44;101600;;;25.08738;15.54676
46174;BME280;31897;52.420;13.498;2022-07-11T15:00:44;101600;;;25.03149;15.53188
46174;BME280;31897;52.420;13.498;2022-07-11T15:03:45;101600;;;25.14199;15.43336
46174;BME280;31897;52.420;13.498;2022-07-11T15:06:46;101600;;;25.63987;15.13929
46174;BME280;31897;52.420;13.498;2022-07-11T15:09:46;101600;;;26.15392;14.88026
46174;BME280;31897;52.420;13.498;2022-07-11T15:12:47;101600;;;26.51772;14.51984